• Join FlightAware (Why Join?)
  • Login
  • US Flag 
01:59AM EST


 

Airport Tracker/Info


-or-


 

Live Flight TrackerFlight Track Log ✈ SWA472 ✈ 25-Apr-2013 ✈ KONT - KSMF

Flight Track Log - Related Links

Times and Time Zones

All times are in EDT time to prevent confusion due to time zone crossing. See the SWA472 flight status page for this flight to view local times or setup timezone preferences in your user account.

Time Position Orientation Groundspeed Altitude Reporting Facility
EDT Latitude Longitude Course Direction KTS MPH feet Rate Location/Type
09:03AM 34.0569 -117.6272 270° West 147 169 2,600  Level Los Angeles Center
09:04AM 34.0569 -117.6922 270° West 188 216 5,500 2,160 Climbing Los Angeles Center
09:05AM 34.0678 -117.7761 279° West 247 284 7,000 1,800 Climbing Los Angeles Center
09:06AM 34.1294 -117.8583 312° West 275 316 9,200 2,520 Climbing Los Angeles Center
09:07AM 34.1822 -117.9389 308° West 297 342 12,100 3,420 Climbing Los Angeles Center
09:08AM 34.2447 -118.0317 309° West 344 396 16,200 3,780 Climbing Los Angeles Center
09:09AM 34.3153 -118.1164 315° West 362 417 19,800 3,660 Climbing Los Angeles Center
09:10AM 34.3989 -118.1875 325° Northwest 371 427 23,700 3,180 Climbing Los Angeles Center
09:11AM 34.4836 -118.2556 326° Northwest 369 425 26,300 2,460 Climbing Los Angeles Center
09:12AM 34.5756 -118.3331 325° Northwest 397 457 28,700 2,040 Climbing Los Angeles Center
09:13AM 34.6608 -118.4050 325° Northwest 408 470 30,500 2,160 Climbing Los Angeles Center
09:14AM 34.7664 -118.4933 326° Northwest 423 487 33,100 2,400 Climbing Los Angeles Center
09:15AM 34.8611 -118.5719 326° Northwest 415 478 35,400 1,980 Climbing Los Angeles Center
09:16AM 34.9631 -118.6569 326° Northwest 415 478 37,200 1,440 Climbing Los Angeles Center
09:17AM 35.0603 -118.7381 326° Northwest 423 487 38,400 1,320 Climbing Los Angeles Center
09:18AM 35.1631 -118.8097 330° Northwest 430 495 40,000 780 Climbing Los Angeles Center
09:19AM 35.2697 -118.8700 335° Northwest 425 489 40,000  Level Los Angeles Center
09:20AM 35.3769 -118.9308 335° Northwest 424 488 40,000  Level Los Angeles Center
09:21AM 35.4819 -118.9922 335° Northwest 421 484 40,000  Level Los Angeles Center
09:22AM 35.5861 -119.0514 335° Northwest 416 479 40,000  Level Los Angeles Center
09:23AM 35.6697 -119.1000 335° Northwest 422 486 40,000  Level Oakland Center
09:24AM 35.7739 -119.1631 334° Northwest 419 482 40,000  Level Oakland Center
09:25AM 35.8931 -119.2486 330° Northwest 416 479 40,000  Level Oakland Center
09:26AM 35.9908 -119.3172 330° Northwest 409 471 40,000  Level Oakland Center
09:27AM 36.0903 -119.3853 331° Northwest 409 471 40,000  Level Oakland Center
09:28AM 36.1892 -119.4556 330° Northwest 413 475 40,000  Level Oakland Center
09:29AM 36.2869 -119.5261 330° Northwest 411 473 40,000  Level Oakland Center
09:30AM 36.3872 -119.5964 331° Northwest 416 479 40,000  Level Oakland Center
09:31AM 36.4858 -119.6686 330° Northwest 415 478 40,000  Level Oakland Center
09:32AM 36.5850 -119.7394 330° Northwest 414 476 40,000  Level Oakland Center
09:33AM 36.6842 -119.8122 330° Northwest 415 478 40,000  Level Oakland Center
09:34AM 36.7842 -119.8850 330° Northwest 417 480 40,000 -1,200 Level Oakland Center
09:35AM 36.8836 -119.9564 330° Northwest 414 476 37,600 -2,700 Descending Oakland Center
09:36AM 36.9850 -120.0308 330° Northwest 423 487 34,600 -2,580 Descending Oakland Center
09:37AM 37.0872 -120.1047 330° Northwest 415 478 32,500 -2,460 Descending Oakland Center
09:38AM 37.1828 -120.1764 329° Northwest 405 466 29,700 -2,460 Descending Oakland Center
09:39AM 37.2761 -120.2453 330° Northwest 392 451 27,600 -2,340 Descending Oakland Center
09:40AM 37.3839 -120.3178 332° Northwest 365 420 25,000 -1,920 Descending Oakland Center
09:41AM 37.4664 -120.3881 326° Northwest 357 411 23,700 -1,140 Descending Oakland Center
09:42AM 37.5333 -120.4500 324° Northwest 358 412 22,900 -1,020 Descending Northern Cal TRACON
09:43AM 37.6000 -120.5167 322° Northwest 355 409 22,000 -1,020 Descending Northern Cal TRACON
09:44AM 37.6833 -120.6000 322° Northwest 346 398 20,900 -1,020 Descending Northern Cal TRACON
09:45AM 37.7500 -120.6667 322° Northwest 345 397 20,000 -1,020 Descending Northern Cal TRACON
09:46AM 37.8333 -120.7500 322° Northwest 339 390 18,900 -1,080 Descending Northern Cal TRACON
09:47AM 37.9000 -120.8333 315° West 339 390 17,800 -960 Descending Northern Cal TRACON
09:48AM 37.9139 -120.8503 316° Northwest 340 391 17,700 -900 Descending Oakland Center
09:49AM 37.9772 -120.9336 314° West 330 380 16,700 -1,020 Descending Oakland Center
09:50AM 38.0392 -121.0158 314° West 324 373 15,700 -1,020 Descending Oakland Center
09:51AM 38.1014 -121.0978 314° West 322 371 14,700 -1,080 Descending Oakland Center
09:51AM 38.1333 -121.1500 308° West 320 368 14,100 -1,020 Descending Northern Cal TRACON
09:52AM 38.2000 -121.2167 322° Northwest 317 365 13,300 -1,020 Descending Northern Cal TRACON
09:53AM 38.2667 -121.2833 322° Northwest 312 359 12,200 -1,080 Descending Northern Cal TRACON
09:54AM 38.3333 -121.3667 316° Northwest 306 352 11,200 -1,080 Descending Northern Cal TRACON
09:55AM 38.3833 -121.4167 322° Northwest 297 342 10,200 -1,080 Descending Northern Cal TRACON
09:56AM 38.4500 -121.5000 316° Northwest 288 331 9,100 -1,200 Descending Northern Cal TRACON
09:57AM 38.5000 -121.5500 322° Northwest 284 327 7,900 -1,260 Descending Northern Cal TRACON
09:58AM 38.5500 -121.6167 314° West 267 307 6,800 -1,320 Descending Northern Cal TRACON
09:59AM 38.5936 -121.6475 331° Northwest 256 295 5,500 -1,920 Descending Oakland Center
10:00AM 38.6567 -121.6675 346° North 233 268 3,300 -1,980 Descending Oakland Center
10:01AM 38.7172 -121.6683 359° North 221 254 1,500 -1,080 Descending Oakland Center
10:02AM 38.7500 -121.6167 51° Northeast 159 183 1,100 -660 Descending Northern Cal TRACON
10:03AM 38.7167 -121.6000 159° South 125 144 300 -900 Descending Northern Cal TRACON
10:05AM 38.6954 -121.5908 46° Northeast  Level Estimated